sensor_id;sensor_type;location;lat;lon;timestamp;P1;durP1;ratioP1;P2;durP2;ratioP2
51475;SDS011;37554;50.362;7.568;2023-12-14T00:01:13;4.38;;;3.25;;
51475;SDS011;37554;50.362;7.568;2023-12-14T00:03:42;3.50;;;3.20;;
51475;SDS011;37554;50.362;7.568;2023-12-14T00:06:09;3.13;;;2.83;;
51475;SDS011;37554;50.362;7.568;2023-12-14T00:08:38;4.53;;;3.03;;
51475;SDS011;37554;50.362;7.568;2023-12-14T00:11:08;3.55;;;3.03;;
51475;SDS011;37554;50.362;7.568;2023-12-14T00:13:36;3.55;;;3.10;;
51475;SDS011;37554;50.362;7.568;2023-12-14T00:16:02;5.13;;;2.97;;
51475;SDS011;37554;50.362;7.568;2023-12-14T00:18:28;4.65;;;3.00;;
51475;SDS011;37554;50.362;7.568;2023-12-14T00:20:54;3.55;;;3.15;;
51475;SDS011;37554;50.362;7.568;2023-12-14T00:23:20;5.28;;;2.83;;
51475;SDS011;37554;50.362;7.568;2023-12-14T00:25:46;4.05;;;3.22;;
51475;SDS011;37554;50.362;7.568;2023-12-14T00:28:12;3.60;;;2.80;;
51475;SDS011;37554;50.362;7.568;2023-12-14T00:30:37;3.53;;;3.22;;
51475;SDS011;37554;50.362;7.568;2023-12-14T00:33:03;3.50;;;2.67;;
51475;SDS011;37554;50.362;7.568;2023-12-14T00:35:29;3.80;;;2.88;;
51475;SDS011;37554;50.362;7.568;2023-12-14T00:37:54;3.03;;;2.80;;
51475;SDS011;37554;50.362;7.568;2023-12-14T00:40:20;3.17;;;2.88;;
51475;SDS011;37554;50.362;7.568;2023-12-14T00:42:48;3.10;;;2.75;;
51475;SDS011;37554;50.362;7.568;2023-12-14T00:45:23;3.33;;;3.00;;
51475;SDS011;37554;50.362;7.568;2023-12-14T00:47:48;2.90;;;2.60;;
51475;SDS011;37554;50.362;7.568;2023-12-14T00:50:14;4.93;;;3.08;;
51475;SDS011;37554;50.362;7.568;2023-12-14T00:52:39;3.17;;;2.88;;
51475;SDS011;37554;50.362;7.568;2023-12-14T00:55:05;3.00;;;2.67;;
51475;SDS011;37554;50.362;7.568;2023-12-14T00:57:31;3.63;;;3.08;;
51475;SDS011;37554;50.362;7.568;2023-12-14T00:59:57;3.20;;;2.90;;
51475;SDS011;37554;50.362;7.568;2023-12-14T01:02:22;3.78;;;3.22;;
51475;SDS011;37554;50.362;7.568;2023-12-14T01:04:48;3.53;;;2.92;;
51475;SDS011;37554;50.362;7.568;2023-12-14T01:07:13;3.30;;;3.00;;
51475;SDS011;37554;50.362;7.568;2023-12-14T01:09:39;4.20;;;3.20;;
51475;SDS011;37554;50.362;7.568;2023-12-14T01:12:04;3.60;;;3.13;;
51475;SDS011;37554;50.362;7.568;2023-12-14T01:14:30;4.03;;;3.45;;
51475;SDS011;37554;50.362;7.568;2023-12-14T01:16:56;3.92;;;3.13;;
51475;SDS011;37554;50.362;7.568;2023-12-14T01:19:21;4.55;;;3.50;;
51475;SDS011;37554;50.362;7.568;2023-12-14T01:21:47;3.75;;;3.40;;
51475;SDS011;37554;50.362;7.568;2023-12-14T01:24:12;5.25;;;3.10;;
51475;SDS011;37554;50.362;7.568;2023-12-14T01:26:39;3.47;;;3.05;;
51475;SDS011;37554;50.362;7.568;2023-12-14T01:29:05;3.92;;;3.22;;
51475;SDS011;37554;50.362;7.568;2023-12-14T01:31:30;3.40;;;3.00;;
51475;SDS011;37554;50.362;7.568;2023-12-14T01:33:56;4.30;;;3.30;;
51475;SDS011;37554;50.362;7.568;2023-12-14T01:36:22;4.38;;;2.72;;
51475;SDS011;37554;50.362;7.568;2023-12-14T01:38:48;3.72;;;3.22;;
51475;SDS011;37554;50.362;7.568;2023-12-14T01:41:14;3.30;;;3.00;;
51475;SDS011;37554;50.362;7.568;2023-12-14T01:43:40;3.42;;;3.10;;
51475;SDS011;37554;50.362;7.568;2023-12-14T01:46:06;3.28;;;2.97;;
51475;SDS011;37554;50.362;7.568;2023-12-14T01:48:31;3.35;;;2.90;;
51475;SDS011;37554;50.362;7.568;2023-12-14T01:50:57;3.50;;;3.20;;
51475;SDS011;37554;50.362;7.568;2023-12-14T01:53:22;3.70;;;3.08;;
51475;SDS011;37554;50.362;7.568;2023-12-14T01:55:48;3.88;;;3.10;;
51475;SDS011;37554;50.362;7.568;2023-12-14T01:58:13;3.22;;;2.92;;
51475;SDS011;37554;50.362;7.568;2023-12-14T02:00:41;4.93;;;3.13;;
51475;SDS011;37554;50.362;7.568;2023-12-14T02:03:11;3.15;;;2.85;;
51475;SDS011;37554;50.362;7.568;2023-12-14T02:05:37;4.40;;;3.20;;
51475;SDS011;37554;50.362;7.568;2023-12-14T02:08:02;3.75;;;3.03;;
51475;SDS011;37554;50.362;7.568;2023-12-14T02:10:28;3.95;;;3.42;;
51475;SDS011;37554;50.362;7.568;2023-12-14T02:12:54;3.95;;;3.00;;
51475;SDS011;37554;50.362;7.568;2023-12-14T02:15:19;4.28;;;3.17;;
51475;SDS011;37554;50.362;7.568;2023-12-14T02:17:45;4.13;;;2.90;;
51475;SDS011;37554;50.362;7.568;2023-12-14T02:20:11;4.35;;;3.40;;
51475;SDS011;37554;50.362;7.568;2023-12-14T02:22:49;4.95;;;3.05;;
51475;SDS011;37554;50.362;7.568;2023-12-14T02:25:16;3.63;;;3.33;;
51475;SDS011;37554;50.362;7.568;2023-12-14T02:27:43;3.60;;;3.05;;
51475;SDS011;37554;50.362;7.568;2023-12-14T02:30:08;3.90;;;3.40;;
51475;SDS011;37554;50.362;7.568;2023-12-14T02:32:35;4.25;;;3.40;;
51475;SDS011;37554;50.362;7.568;2023-12-14T02:35:00;5.70;;;3.58;;
51475;SDS011;37554;50.362;7.568;2023-12-14T02:37:26;5.53;;;3.08;;
51475;SDS011;37554;50.362;7.568;2023-12-14T02:39:51;4.20;;;3.70;;
51475;SDS011;37554;50.362;7.568;2023-12-14T02:42:17;4.47;;;3.47;;
51475;SDS011;37554;50.362;7.568;2023-12-14T02:44:42;4.32;;;3.80;;
51475;SDS011;37554;50.362;7.568;2023-12-14T02:47:08;4.32;;;3.85;;
51475;SDS011;37554;50.362;7.568;2023-12-14T02:49:34;3.95;;;3.30;;
51475;SDS011;37554;50.362;7.568;2023-12-14T02:51:59;4.60;;;3.50;;
51475;SDS011;37554;50.362;7.568;2023-12-14T02:54:25;4.47;;;3.75;;
51475;SDS011;37554;50.362;7.568;2023-12-14T02:56:50;5.43;;;3.58;;
51475;SDS011;37554;50.362;7.568;2023-12-14T02:59:16;4.57;;;3.50;;
51475;SDS011;37554;50.362;7.568;2023-12-14T03:01:41;4.40;;;3.75;;
51475;SDS011;37554;50.362;7.568;2023-12-14T03:04:07;4.60;;;3.45;;
51475;SDS011;37554;50.362;7.568;2023-12-14T03:06:32;3.45;;;3.15;;
51475;SDS011;37554;50.362;7.568;2023-12-14T03:08:58;3.83;;;3.53;;
51475;SDS011;37554;50.362;7.568;2023-12-14T03:11:24;3.92;;;3.53;;
51475;SDS011;37554;50.362;7.568;2023-12-14T03:13:50;3.78;;;3.38;;
51475;SDS011;37554;50.362;7.568;2023-12-14T03:16:16;3.47;;;3.13;;
51475;SDS011;37554;50.362;7.568;2023-12-14T03:18:43;3.30;;;3.00;;
51475;SDS011;37554;50.362;7.568;2023-12-14T03:21:09;3.38;;;3.03;;
51475;SDS011;37554;50.362;7.568;2023-12-14T03:23:35;5.28;;;3.35;;
51475;SDS011;37554;50.362;7.568;2023-12-14T03:26:00;4.95;;;3.22;;
51475;SDS011;37554;50.362;7.568;2023-12-14T03:28:26;4.22;;;3.28;;
51475;SDS011;37554;50.362;7.568;2023-12-14T03:30:52;3.13;;;2.83;;
51475;SDS011;37554;50.362;7.568;2023-12-14T03:33:18;3.42;;;3.13;;
51475;SDS011;37554;50.362;7.568;2023-12-14T03:35:43;3.72;;;2.85;;
51475;SDS011;37554;50.362;7.568;2023-12-14T03:38:09;3.45;;;3.15;;
51475;SDS011;37554;50.362;7.568;2023-12-14T03:40:35;3.75;;;3.17;;
51475;SDS011;37554;50.362;7.568;2023-12-14T03:43:01;3.42;;;3.00;;
51475;SDS011;37554;50.362;7.568;2023-12-14T03:45:28;4.43;;;3.40;;
51475;SDS011;37554;50.362;7.568;2023-12-14T03:47:54;4.13;;;2.85;;
51475;SDS011;37554;50.362;7.568;2023-12-14T03:50:19;5.03;;;3.10;;
51475;SDS011;37554;50.362;7.568;2023-12-14T03:52:45;3.53;;;3.22;;
51475;SDS011;37554;50.362;7.568;2023-12-14T03:55:11;3.78;;;3.15;;
51475;SDS011;37554;50.362;7.568;2023-12-14T03:57:37;3.55;;;3.10;;
51475;SDS011;37554;50.362;7.568;2023-12-14T04:00:03;4.30;;;3.20;;
51475;SDS011;37554;50.362;7.568;2023-12-14T04:02:29;3.63;;;3.30;;
51475;SDS011;37554;50.362;7.568;2023-12-14T04:04:54;3.63;;;3.17;;
51475;SDS011;37554;50.362;7.568;2023-12-14T04:07:20;3.53;;;3.08;;
51475;SDS011;37554;50.362;7.568;2023-12-14T04:09:46;4.70;;;2.95;;
51475;SDS011;37554;50.362;7.568;2023-12-14T04:12:12;4.35;;;3.03;;
51475;SDS011;37554;50.362;7.568;2023-12-14T04:14:38;3.28;;;2.90;;
51475;SDS011;37554;50.362;7.568;2023-12-14T04:17:03;3.88;;;3.38;;
51475;SDS011;37554;50.362;7.568;2023-12-14T04:19:29;3.03;;;2.72;;
51475;SDS011;37554;50.362;7.568;2023-12-14T04:21:54;4.13;;;2.50;;
51475;SDS011;37554;50.362;7.568;2023-12-14T04:24:20;3.17;;;2.90;;
51475;SDS011;37554;50.362;7.568;2023-12-14T04:26:47;4.28;;;3.05;;
51475;SDS011;37554;50.362;7.568;2023-12-14T04:29:12;3.80;;;3.08;;
51475;SDS011;37554;50.362;7.568;2023-12-14T04:31:38;4.13;;;3.00;;
51475;SDS011;37554;50.362;7.568;2023-12-14T04:34:03;3.55;;;3.25;;
51475;SDS011;37554;50.362;7.568;2023-12-14T04:36:29;4.18;;;3.40;;
51475;SDS011;37554;50.362;7.568;2023-12-14T04:38:54;4.70;;;3.60;;
51475;SDS011;37554;50.362;7.568;2023-12-14T04:41:20;3.78;;;3.17;;
51475;SDS011;37554;50.362;7.568;2023-12-14T04:43:45;3.47;;;3.08;;
51475;SDS011;37554;50.362;7.568;2023-12-14T04:46:11;3.30;;;3.00;;
51475;SDS011;37554;50.362;7.568;2023-12-14T04:48:37;3.78;;;3.40;;
51475;SDS011;37554;50.362;7.568;2023-12-14T04:51:02;5.35;;;3.72;;
51475;SDS011;37554;50.362;7.568;2023-12-14T04:53:28;3.67;;;3.25;;
51475;SDS011;37554;50.362;7.568;2023-12-14T04:55:53;3.53;;;3.20;;
51475;SDS011;37554;50.362;7.568;2023-12-14T04:58:19;3.85;;;3.45;;
51475;SDS011;37554;50.362;7.568;2023-12-14T05:00:45;3.22;;;2.92;;
51475;SDS011;37554;50.362;7.568;2023-12-14T05:03:10;3.35;;;3.05;;
51475;SDS011;37554;50.362;7.568;2023-12-14T05:05:36;3.60;;;3.30;;
51475;SDS011;37554;50.362;7.568;2023-12-14T05:08:01;3.50;;;3.20;;
51475;SDS011;37554;50.362;7.568;2023-12-14T05:10:27;3.30;;;3.00;;
51475;SDS011;37554;50.362;7.568;2023-12-14T05:12:52;3.80;;;3.45;;
51475;SDS011;37554;50.362;7.568;2023-12-14T05:15:18;4.45;;;3.50;;
51475;SDS011;37554;50.362;7.568;2023-12-14T05:17:45;4.88;;;3.40;;
51475;SDS011;37554;50.362;7.568;2023-12-14T05:20:11;4.00;;;3.30;;
51475;SDS011;37554;50.362;7.568;2023-12-14T05:22:36;6.82;;;3.75;;
51475;SDS011;37554;50.362;7.568;2023-12-14T05:25:02;4.25;;;3.53;;
51475;SDS011;37554;50.362;7.568;2023-12-14T05:27:29;4.88;;;3.70;;
51475;SDS011;37554;50.362;7.568;2023-12-14T05:29:55;3.70;;;3.40;;
51475;SDS011;37554;50.362;7.568;2023-12-14T05:32:20;4.13;;;3.65;;
51475;SDS011;37554;50.362;7.568;2023-12-14T05:34:46;3.55;;;3.25;;
51475;SDS011;37554;50.362;7.568;2023-12-14T05:37:12;5.15;;;3.88;;
51475;SDS011;37554;50.362;7.568;2023-12-14T05:39:40;4.70;;;3.75;;
51475;SDS011;37554;50.362;7.568;2023-12-14T05:42:07;4.07;;;3.20;;
51475;SDS011;37554;50.362;7.568;2023-12-14T05:44:32;4.18;;;3.78;;
51475;SDS011;37554;50.362;7.568;2023-12-14T05:46:58;3.90;;;3.40;;
51475;SDS011;37554;50.362;7.568;2023-12-14T05:49:23;4.82;;;4.13;;
51475;SDS011;37554;50.362;7.568;2023-12-14T05:51:49;4.80;;;4.10;;
51475;SDS011;37554;50.362;7.568;2023-12-14T05:54:14;3.90;;;3.50;;
51475;SDS011;37554;50.362;7.568;2023-12-14T05:56:40;4.35;;;3.78;;
51475;SDS011;37554;50.362;7.568;2023-12-14T05:59:06;4.25;;;3.65;;
51475;SDS011;37554;50.362;7.568;2023-12-14T06:01:31;4.85;;;3.72;;
51475;SDS011;37554;50.362;7.568;2023-12-14T06:03:57;4.90;;;3.85;;
51475;SDS011;37554;50.362;7.568;2023-12-14T06:06:22;4.07;;;3.58;;
51475;SDS011;37554;50.362;7.568;2023-12-14T06:08:48;4.20;;;3.67;;
51475;SDS011;37554;50.362;7.568;2023-12-14T06:11:14;6.30;;;4.20;;
51475;SDS011;37554;50.362;7.568;2023-12-14T06:13:40;5.20;;;3.83;;
51475;SDS011;37554;50.362;7.568;2023-12-14T06:16:05;5.63;;;4.00;;
51475;SDS011;37554;50.362;7.568;2023-12-14T06:18:37;3.88;;;3.30;;
51475;SDS011;37554;50.362;7.568;2023-12-14T06:21:04;4.97;;;3.75;;
51475;SDS011;37554;50.362;7.568;2023-12-14T06:23:31;4.22;;;3.83;;
51475;SDS011;37554;50.362;7.568;2023-12-14T06:25:56;5.30;;;3.88;;
51475;SDS011;37554;50.362;7.568;2023-12-14T06:28:23;4.30;;;3.85;;
51475;SDS011;37554;50.362;7.568;2023-12-14T06:30:48;4.30;;;3.90;;
51475;SDS011;37554;50.362;7.568;2023-12-14T06:33:14;4.32;;;3.75;;
51475;SDS011;37554;50.362;7.568;2023-12-14T06:35:40;5.95;;;4.18;;
51475;SDS011;37554;50.362;7.568;2023-12-14T06:38:05;6.28;;;4.15;;
51475;SDS011;37554;50.362;7.568;2023-12-14T06:40:31;4.55;;;3.90;;
51475;SDS011;37554;50.362;7.568;2023-12-14T06:42:56;4.43;;;3.85;;
51475;SDS011;37554;50.362;7.568;2023-12-14T06:45:23;7.30;;;4.53;;
51475;SDS011;37554;50.362;7.568;2023-12-14T06:47:48;8.52;;;5.68;;
51475;SDS011;37554;50.362;7.568;2023-12-14T06:50:14;9.15;;;5.03;;
51475;SDS011;37554;50.362;7.568;2023-12-14T06:52:40;6.95;;;5.53;;
51475;SDS011;37554;50.362;7.568;2023-12-14T06:55:06;5.10;;;4.45;;
51475;SDS011;37554;50.362;7.568;2023-12-14T06:57:32;6.15;;;4.65;;
51475;SDS011;37554;50.362;7.568;2023-12-14T06:59:57;8.05;;;4.85;;
51475;SDS011;37554;50.362;7.568;2023-12-14T07:02:23;8.85;;;4.80;;
51475;SDS011;37554;50.362;7.568;2023-12-14T07:04:48;7.07;;;4.25;;
51475;SDS011;37554;50.362;7.568;2023-12-14T07:07:14;8.60;;;4.40;;
51475;SDS011;37554;50.362;7.568;2023-12-14T07:09:40;8.85;;;4.55;;
51475;SDS011;37554;50.362;7.568;2023-12-14T07:12:06;5.97;;;4.65;;
51475;SDS011;37554;50.362;7.568;2023-12-14T07:14:33;8.48;;;4.47;;
51475;SDS011;37554;50.362;7.568;2023-12-14T07:16:58;5.57;;;4.25;;
51475;SDS011;37554;50.362;7.568;2023-12-14T07:19:24;7.00;;;4.32;;
51475;SDS011;37554;50.362;7.568;2023-12-14T07:21:49;6.38;;;4.10;;
51475;SDS011;37554;50.362;7.568;2023-12-14T07:24:15;5.38;;;4.32;;
51475;SDS011;37554;50.362;7.568;2023-12-14T07:26:40;6.45;;;4.20;;
51475;SDS011;37554;50.362;7.568;2023-12-14T07:29:06;5.55;;;4.03;;
51475;SDS011;37554;50.362;7.568;2023-12-14T07:31:32;7.78;;;4.57;;
51475;SDS011;37554;50.362;7.568;2023-12-14T07:33:58;6.03;;;4.63;;
51475;SDS011;37554;50.362;7.568;2023-12-14T07:36:24;7.40;;;5.07;;
51475;SDS011;37554;50.362;7.568;2023-12-14T07:38:50;8.80;;;4.80;;
51475;SDS011;37554;50.362;7.568;2023-12-14T07:41:15;7.15;;;5.32;;
51475;SDS011;37554;50.362;7.568;2023-12-14T07:43:41;5.97;;;5.13;;
51475;SDS011;37554;50.362;7.568;2023-12-14T07:46:08;9.18;;;5.65;;
51475;SDS011;37554;50.362;7.568;2023-12-14T07:48:33;8.27;;;6.25;;
51475;SDS011;37554;50.362;7.568;2023-12-14T07:50:59;6.70;;;5.45;;
51475;SDS011;37554;50.362;7.568;2023-12-14T07:53:24;7.07;;;6.15;;
51475;SDS011;37554;50.362;7.568;2023-12-14T07:55:50;7.13;;;5.72;;
51475;SDS011;37554;50.362;7.568;2023-12-14T07:58:15;7.85;;;5.93;;
51475;SDS011;37554;50.362;7.568;2023-12-14T08:00:41;6.55;;;5.57;;
51475;SDS011;37554;50.362;7.568;2023-12-14T08:03:07;7.68;;;6.03;;
51475;SDS011;37554;50.362;7.568;2023-12-14T08:05:32;6.90;;;6.15;;
51475;SDS011;37554;50.362;7.568;2023-12-14T08:07:58;8.75;;;6.40;;
51475;SDS011;37554;50.362;7.568;2023-12-14T08:10:24;7.97;;;5.82;;
51475;SDS011;37554;50.362;7.568;2023-12-14T08:12:49;10.52;;;6.50;;
51475;SDS011;37554;50.362;7.568;2023-12-14T08:15:17;8.15;;;6.65;;
51475;SDS011;37554;50.362;7.568;2023-12-14T08:17:42;9.85;;;7.55;;
51475;SDS011;37554;50.362;7.568;2023-12-14T08:20:08;11.13;;;8.00;;
51475;SDS011;37554;50.362;7.568;2023-12-14T08:22:36;10.65;;;8.18;;
51475;SDS011;37554;50.362;7.568;2023-12-14T08:25:02;10.30;;;8.18;;
51475;SDS011;37554;50.362;7.568;2023-12-14T08:27:28;10.18;;;9.00;;
51475;SDS011;37554;50.362;7.568;2023-12-14T08:29:54;12.63;;;9.55;;
51475;SDS011;37554;50.362;7.568;2023-12-14T08:32:19;12.60;;;9.57;;
51475;SDS011;37554;50.362;7.568;2023-12-14T08:34:45;11.23;;;8.98;;
51475;SDS011;37554;50.362;7.568;2023-12-14T08:37:11;12.98;;;9.95;;
51475;SDS011;37554;50.362;7.568;2023-12-14T08:39:36;13.20;;;10.45;;
51475;SDS011;37554;50.362;7.568;2023-12-14T08:42:02;12.70;;;9.98;;
51475;SDS011;37554;50.362;7.568;2023-12-14T08:44:27;12.90;;;10.30;;
51475;SDS011;37554;50.362;7.568;2023-12-14T08:46:53;13.95;;;10.40;;
51475;SDS011;37554;50.362;7.568;2023-12-14T08:49:19;13.15;;;10.48;;
51475;SDS011;37554;50.362;7.568;2023-12-14T08:51:44;15.45;;;11.23;;
51475;SDS011;37554;50.362;7.568;2023-12-14T08:54:10;15.05;;;11.07;;
51475;SDS011;37554;50.362;7.568;2023-12-14T08:56:36;13.27;;;10.20;;
51475;SDS011;37554;50.362;7.568;2023-12-14T08:59:01;12.43;;;10.10;;
51475;SDS011;37554;50.362;7.568;2023-12-14T09:01:28;16.33;;;10.82;;
51475;SDS011;37554;50.362;7.568;2023-12-14T09:03:54;15.25;;;10.85;;
51475;SDS011;37554;50.362;7.568;2023-12-14T09:06:20;15.35;;;11.27;;
51475;SDS011;37554;50.362;7.568;2023-12-14T09:08:45;13.38;;;10.40;;
51475;SDS011;37554;50.362;7.568;2023-12-14T09:11:11;15.18;;;10.80;;
51475;SDS011;37554;50.362;7.568;2023-12-14T09:13:37;13.63;;;10.82;;
51475;SDS011;37554;50.362;7.568;2023-12-14T09:16:03;13.35;;;10.70;;
51475;SDS011;37554;50.362;7.568;2023-12-14T09:18:29;14.40;;;11.25;;
51475;SDS011;37554;50.362;7.568;2023-12-14T09:20:55;13.77;;;11.50;;
51475;SDS011;37554;50.362;7.568;2023-12-14T09:23:21;13.63;;;10.48;;
51475;SDS011;37554;50.362;7.568;2023-12-14T09:25:46;11.77;;;10.15;;
51475;SDS011;37554;50.362;7.568;2023-12-14T09:28:12;14.77;;;11.02;;
51475;SDS011;37554;50.362;7.568;2023-12-14T09:30:38;11.45;;;10.25;;
51475;SDS011;37554;50.362;7.568;2023-12-14T09:33:03;13.00;;;10.68;;
51475;SDS011;37554;50.362;7.568;2023-12-14T09:35:29;11.48;;;9.43;;
51475;SDS011;37554;50.362;7.568;2023-12-14T09:37:55;11.15;;;9.95;;
51475;SDS011;37554;50.362;7.568;2023-12-14T09:40:21;11.95;;;9.63;;
51475;SDS011;37554;50.362;7.568;2023-12-14T09:42:47;10.63;;;9.40;;
51475;SDS011;37554;50.362;7.568;2023-12-14T09:45:13;10.43;;;9.32;;
51475;SDS011;37554;50.362;7.568;2023-12-14T09:47:42;10.55;;;8.38;;
51475;SDS011;37554;50.362;7.568;2023-12-14T09:50:09;9.18;;;7.82;;
51475;SDS011;37554;50.362;7.568;2023-12-14T09:52:35;9.27;;;8.02;;
51475;SDS011;37554;50.362;7.568;2023-12-14T09:55:01;9.05;;;7.70;;
51475;SDS011;37554;50.362;7.568;2023-12-14T09:57:28;7.90;;;7.15;;
51475;SDS011;37554;50.362;7.568;2023-12-14T09:59:54;7.85;;;7.05;;
51475;SDS011;37554;50.362;7.568;2023-12-14T10:02:24;9.35;;;7.57;;
51475;SDS011;37554;50.362;7.568;2023-12-14T10:04:51;7.82;;;6.97;;
51475;SDS011;37554;50.362;7.568;2023-12-14T10:07:17;7.13;;;6.20;;
51475;SDS011;37554;50.362;7.568;2023-12-14T10:09:43;8.55;;;6.85;;
51475;SDS011;37554;50.362;7.568;2023-12-14T10:12:09;11.07;;;6.63;;
51475;SDS011;37554;50.362;7.568;2023-12-14T10:14:36;7.35;;;6.38;;
51475;SDS011;37554;50.362;7.568;2023-12-14T10:17:18;7.32;;;6.35;;
51475;SDS011;37554;50.362;7.568;2023-12-14T10:19:46;7.70;;;6.07;;
51475;SDS011;37554;50.362;7.568;2023-12-14T10:22:16;6.18;;;5.65;;
51475;SDS011;37554;50.362;7.568;2023-12-14T10:24:43;7.57;;;6.13;;
51475;SDS011;37554;50.362;7.568;2023-12-14T10:27:09;6.78;;;5.88;;
51475;SDS011;37554;50.362;7.568;2023-12-14T10:29:39;7.30;;;6.35;;
51475;SDS011;37554;50.362;7.568;2023-12-14T10:32:05;8.90;;;5.95;;
51475;SDS011;37554;50.362;7.568;2023-12-14T10:34:35;7.18;;;5.93;;
51475;SDS011;37554;50.362;7.568;2023-12-14T10:37:06;6.05;;;5.32;;
51475;SDS011;37554;50.362;7.568;2023-12-14T10:39:37;6.65;;;5.47;;
51475;SDS011;37554;50.362;7.568;2023-12-14T10:42:07;6.32;;;5.70;;
51475;SDS011;37554;50.362;7.568;2023-12-14T10:44:35;5.97;;;5.20;;
51475;SDS011;37554;50.362;7.568;2023-12-14T10:47:03;6.15;;;5.35;;
51475;SDS011;37554;50.362;7.568;2023-12-14T10:49:29;7.32;;;5.50;;
51475;SDS011;37554;50.362;7.568;2023-12-14T10:51:56;6.07;;;5.30;;
51475;SDS011;37554;50.362;7.568;2023-12-14T10:54:24;5.80;;;5.28;;
51475;SDS011;37554;50.362;7.568;2023-12-14T10:56:54;5.60;;;4.95;;
51475;SDS011;37554;50.362;7.568;2023-12-14T10:59:21;6.10;;;5.50;;
51475;SDS011;37554;50.362;7.568;2023-12-14T11:01:52;5.93;;;5.00;;
51475;SDS011;37554;50.362;7.568;2023-12-14T11:04:19;5.85;;;4.90;;
51475;SDS011;37554;50.362;7.568;2023-12-14T11:06:46;5.32;;;4.80;;
51475;SDS011;37554;50.362;7.568;2023-12-14T11:09:13;4.70;;;4.20;;
51475;SDS011;37554;50.362;7.568;2023-12-14T11:14:15;4.65;;;4.25;;
51475;SDS011;37554;50.362;7.568;2023-12-14T11:16:43;5.45;;;4.30;;
51475;SDS011;37554;50.362;7.568;2023-12-14T11:24:21;6.63;;;4.30;;
51475;SDS011;37554;50.362;7.568;2023-12-14T11:26:50;4.20;;;3.80;;
51475;SDS011;37554;50.362;7.568;2023-12-14T11:29:19;4.72;;;3.78;;
51475;SDS011;37554;50.362;7.568;2023-12-14T11:31:47;4.47;;;4.00;;
51475;SDS011;37554;50.362;7.568;2023-12-14T11:34:14;4.10;;;3.80;;
51475;SDS011;37554;50.362;7.568;2023-12-14T11:36:42;3.88;;;3.33;;
51475;SDS011;37554;50.362;7.568;2023-12-14T11:39:07;3.83;;;3.53;;
51475;SDS011;37554;50.362;7.568;2023-12-14T11:41:34;3.17;;;2.88;;
51475;SDS011;37554;50.362;7.568;2023-12-14T11:44:00;3.17;;;2.88;;
51475;SDS011;37554;50.362;7.568;2023-12-14T11:46:26;3.20;;;2.90;;
51475;SDS011;37554;50.362;7.568;2023-12-14T11:48:53;3.17;;;2.90;;
51475;SDS011;37554;50.362;7.568;2023-12-14T11:51:21;3.28;;;2.97;;
51475;SDS011;37554;50.362;7.568;2023-12-14T11:53:47;2.70;;;2.50;;
51475;SDS011;37554;50.362;7.568;2023-12-14T11:56:14;3.03;;;2.83;;
51475;SDS011;37554;50.362;7.568;2023-12-14T11:58:43;2.95;;;2.63;;
51475;SDS011;37554;50.362;7.568;2023-12-14T12:01:16;5.90;;;2.53;;
51475;SDS011;37554;50.362;7.568;2023-12-14T12:03:43;2.63;;;2.10;;
51475;SDS011;37554;50.362;7.568;2023-12-14T12:06:20;2.95;;;2.65;;
51475;SDS011;37554;50.362;7.568;2023-12-14T12:08:47;2.60;;;2.40;;
51475;SDS011;37554;50.362;7.568;2023-12-14T12:11:17;3.60;;;2.67;;
51475;SDS011;37554;50.362;7.568;2023-12-14T12:13:43;2.50;;;2.30;;
51475;SDS011;37554;50.362;7.568;2023-12-14T12:16:09;2.58;;;2.38;;
51475;SDS011;37554;50.362;7.568;2023-12-14T12:18:34;2.65;;;2.25;;
51475;SDS011;37554;50.362;7.568;2023-12-14T12:21:00;2.45;;;2.03;;
51475;SDS011;37554;50.362;7.568;2023-12-14T12:23:29;3.03;;;2.75;;
51475;SDS011;37554;50.362;7.568;2023-12-14T12:25:54;2.50;;;2.28;;
51475;SDS011;37554;50.362;7.568;2023-12-14T12:28:20;3.00;;;2.70;;
51475;SDS011;37554;50.362;7.568;2023-12-14T12:30:46;2.53;;;2.33;;
51475;SDS011;37554;50.362;7.568;2023-12-14T12:33:12;2.58;;;2.30;;
51475;SDS011;37554;50.362;7.568;2023-12-14T12:35:38;2.30;;;2.10;;
51475;SDS011;37554;50.362;7.568;2023-12-14T12:38:03;3.00;;;2.50;;
51475;SDS011;37554;50.362;7.568;2023-12-14T12:40:29;2.33;;;2.10;;
51475;SDS011;37554;50.362;7.568;2023-12-14T12:42:56;2.95;;;2.47;;
51475;SDS011;37554;50.362;7.568;2023-12-14T12:45:22;2.30;;;2.10;;
51475;SDS011;37554;50.362;7.568;2023-12-14T12:47:50;2.47;;;2.28;;
51475;SDS011;37554;50.362;7.568;2023-12-14T12:50:16;3.33;;;2.60;;
51475;SDS011;37554;50.362;7.568;2023-12-14T12:52:41;2.95;;;2.58;;
51475;SDS011;37554;50.362;7.568;2023-12-14T12:55:08;2.92;;;2.63;;
51475;SDS011;37554;50.362;7.568;2023-12-14T12:57:34;2.78;;;2.58;;
51475;SDS011;37554;50.362;7.568;2023-12-14T13:00:00;3.05;;;2.75;;
51475;SDS011;37554;50.362;7.568;2023-12-14T13:02:26;2.83;;;2.50;;
51475;SDS011;37554;50.362;7.568;2023-12-14T13:04:52;2.65;;;2.20;;
51475;SDS011;37554;50.362;7.568;2023-12-14T13:07:18;3.97;;;2.67;;
51475;SDS011;37554;50.362;7.568;2023-12-14T13:09:44;3.00;;;2.70;;
51475;SDS011;37554;50.362;7.568;2023-12-14T13:12:09;2.92;;;2.33;;
51475;SDS011;37554;50.362;7.568;2023-12-14T13:14:35;2.72;;;2.53;;
51475;SDS011;37554;50.362;7.568;2023-12-14T13:17:01;2.63;;;2.38;;
51475;SDS011;37554;50.362;7.568;2023-12-14T13:19:27;3.03;;;2.50;;
51475;SDS011;37554;50.362;7.568;2023-12-14T13:21:53;3.05;;;2.70;;
51475;SDS011;37554;50.362;7.568;2023-12-14T13:24:21;2.55;;;2.35;;
51475;SDS011;37554;50.362;7.568;2023-12-14T13:26:48;2.97;;;2.65;;
51475;SDS011;37554;50.362;7.568;2023-12-14T13:29:13;3.40;;;3.10;;
51475;SDS011;37554;50.362;7.568;2023-12-14T13:31:39;3.03;;;2.80;;
51475;SDS011;37554;50.362;7.568;2023-12-14T13:34:04;3.30;;;3.00;;
51475;SDS011;37554;50.362;7.568;2023-12-14T13:36:30;3.42;;;3.13;;
51475;SDS011;37554;50.362;7.568;2023-12-14T13:38:56;3.17;;;2.88;;
51475;SDS011;37554;50.362;7.568;2023-12-14T13:41:21;3.33;;;2.80;;
51475;SDS011;37554;50.362;7.568;2023-12-14T13:43:48;3.72;;;3.30;;
51475;SDS011;37554;50.362;7.568;2023-12-14T13:46:13;3.63;;;2.78;;
51475;SDS011;37554;50.362;7.568;2023-12-14T13:48:39;3.92;;;2.80;;
51475;SDS011;37554;50.362;7.568;2023-12-14T13:51:06;2.90;;;2.60;;
51475;SDS011;37554;50.362;7.568;2023-12-14T13:53:33;5.20;;;2.75;;
51475;SDS011;37554;50.362;7.568;2023-12-14T13:55:58;2.95;;;2.38;;
51475;SDS011;37554;50.362;7.568;2023-12-14T13:58:24;3.75;;;2.70;;
51475;SDS011;37554;50.362;7.568;2023-12-14T14:00:50;3.78;;;2.50;;
51475;SDS011;37554;50.362;7.568;2023-12-14T14:03:16;2.60;;;2.28;;
51475;SDS011;37554;50.362;7.568;2023-12-14T14:05:41;4.80;;;4.40;;
51475;SDS011;37554;50.362;7.568;2023-12-14T14:08:09;5.55;;;4.97;;
51475;SDS011;37554;50.362;7.568;2023-12-14T14:10:34;5.35;;;4.93;;
51475;SDS011;37554;50.362;7.568;2023-12-14T14:13:00;5.30;;;4.80;;
51475;SDS011;37554;50.362;7.568;2023-12-14T14:15:25;5.45;;;4.80;;
51475;SDS011;37554;50.362;7.568;2023-12-14T14:17:51;4.68;;;4.28;;
51475;SDS011;37554;50.362;7.568;2023-12-14T14:20:19;4.75;;;3.83;;
51475;SDS011;37554;50.362;7.568;2023-12-14T14:22:45;3.95;;;3.55;;
51475;SDS011;37554;50.362;7.568;2023-12-14T14:25:10;3.25;;;2.95;;
51475;SDS011;37554;50.362;7.568;2023-12-14T14:27:36;5.93;;;2.58;;
51475;SDS011;37554;50.362;7.568;2023-12-14T14:30:02;2.55;;;2.35;;
51475;SDS011;37554;50.362;7.568;2023-12-14T14:32:28;2.40;;;2.20;;
51475;SDS011;37554;50.362;7.568;2023-12-14T14:34:56;2.33;;;2.13;;
51475;SDS011;37554;50.362;7.568;2023-12-14T14:37:23;4.03;;;2.28;;
51475;SDS011;37554;50.362;7.568;2023-12-14T14:39:49;3.47;;;2.05;;
51475;SDS011;37554;50.362;7.568;2023-12-14T14:42:15;2.42;;;2.22;;
51475;SDS011;37554;50.362;7.568;2023-12-14T14:44:41;2.05;;;1.95;;
51475;SDS011;37554;50.362;7.568;2023-12-14T14:47:06;1.92;;;1.80;;